Terminal Aerodrome Forecast
Issued by NWS St Louis, MO

Home | Current Version | Previous Version | Text Only | Print | Product List | Glossary On
Versions: 1 2 3 4 5 6 7 8 9 10 11 12 13 14 15 16 17 18 19 20 21 22 23 24 25 26 27 28 29 30 31
474
FTUS43 KLSX 211006 AAB
TAFSTL
TAF AMD
KSTL 211006Z 2110/2212 33013KT 5SM -FZRA BR OVC015
     FM211100 35012G20KT 6SM BR OVC008
     FM211200 35011G18KT P6SM OVC010
     FM211700 01010G16KT P6SM BKN020
     FM220000 04010G17KT P6SM OVC020=

USA.gov is the U.S. government's official web portal to all federal, state and local government web resources and services.